sensor_id;sensor_type;location;lat;lon;timestamp;pressure;altitude;pressure_sealevel;temperature
15701;BMP180;7950;42.744;23.174;2023-12-20T00:02:03;94743.69;;;0.28
15701;BMP180;7950;42.744;23.174;2023-12-20T00:04:31;94737.19;;;0.46
15701;BMP180;7950;42.744;23.174;2023-12-20T00:07:00;94730.97;;;0.41
15701;BMP180;7950;42.744;23.174;2023-12-20T00:09:29;94734.19;;;0.43
15701;BMP180;7950;42.744;23.174;2023-12-20T00:11:58;94733.13;;;0.22
15701;BMP180;7950;42.744;23.174;2023-12-20T00:14:26;94731.34;;;0.23
15701;BMP180;7950;42.744;23.174;2023-12-20T00:16:56;94730.19;;;0.26
15701;BMP180;7950;42.744;23.174;2023-12-20T00:19:25;94718.38;;;0.17
15701;BMP180;7950;42.744;23.174;2023-12-20T00:21:53;94717.56;;;0.16
15701;BMP180;7950;42.744;23.174;2023-12-20T00:24:22;94721.47;;;0.12
15701;BMP180;7950;42.744;23.174;2023-12-20T00:26:50;94705.31;;;0.03
15701;BMP180;7950;42.744;23.174;2023-12-20T00:29:19;94704.22;;;0.13
15701;BMP180;7950;42.744;23.174;2023-12-20T00:31:47;94697.19;;;0.06
15701;BMP180;7950;42.744;23.174;2023-12-20T00:34:18;94702.72;;;0.03
15701;BMP180;7950;42.744;23.174;2023-12-20T00:36:46;94696.06;;;0.09
15701;BMP180;7950;42.744;23.174;2023-12-20T00:39:15;94702.81;;;0.10
15701;BMP180;7950;42.744;23.174;2023-12-20T00:41:43;94694.00;;;0.04
15701;BMP180;7950;42.744;23.174;2023-12-20T00:44:12;94693.50;;;-0.06
15701;BMP180;7950;42.744;23.174;2023-12-20T00:46:40;94686.00;;;-0.15
15701;BMP180;7950;42.744;23.174;2023-12-20T00:49:09;94683.34;;;-0.07
15701;BMP180;7950;42.744;23.174;2023-12-20T00:51:39;94681.84;;;-0.02
15701;BMP180;7950;42.744;23.174;2023-12-20T00:54:07;94686.28;;;0.04
15701;BMP180;7950;42.744;23.174;2023-12-20T00:56:36;94673.72;;;0.01
15701;BMP180;7950;42.744;23.174;2023-12-20T00:59:04;94676.13;;;0.17
15701;BMP180;7950;42.744;23.174;2023-12-20T01:01:33;94671.56;;;0.19
15701;BMP180;7950;42.744;23.174;2023-12-20T01:04:02;94667.47;;;0.10
15701;BMP180;7950;42.744;23.174;2023-12-20T01:06:31;94666.22;;;0.21
15701;BMP180;7950;42.744;23.174;2023-12-20T01:09:00;94656.91;;;0.20
15701;BMP180;7950;42.744;23.174;2023-12-20T01:11:30;94660.47;;;0.19
15701;BMP180;7950;42.744;23.174;2023-12-20T01:13:58;94656.97;;;0.27
15701;BMP180;7950;42.744;23.174;2023-12-20T01:16:27;94646.91;;;0.32
15701;BMP180;7950;42.744;23.174;2023-12-20T01:18:55;94649.47;;;0.32
15701;BMP180;7950;42.744;23.174;2023-12-20T01:21:24;94645.97;;;0.39
15701;BMP180;7950;42.744;23.174;2023-12-20T01:23:52;94641.81;;;0.38
15701;BMP180;7950;42.744;23.174;2023-12-20T01:26:22;94637.56;;;0.31
15701;BMP180;7950;42.744;23.174;2023-12-20T01:28:51;94639.81;;;0.19
15701;BMP180;7950;42.744;23.174;2023-12-20T01:31:20;94640.09;;;0.09
15701;BMP180;7950;42.744;23.174;2023-12-20T01:33:49;94634.69;;;0.04
15701;BMP180;7950;42.744;23.174;2023-12-20T01:36:17;94636.38;;;-0.03
15701;BMP180;7950;42.744;23.174;2023-12-20T01:38:46;94627.16;;;-0.12
15701;BMP180;7950;42.744;23.174;2023-12-20T01:41:15;94625.28;;;-0.03
15701;BMP180;7950;42.744;23.174;2023-12-20T01:43:45;94626.44;;;-0.06
15701;BMP180;7950;42.744;23.174;2023-12-20T01:46:20;94623.78;;;0.03
15701;BMP180;7950;42.744;23.174;2023-12-20T01:48:49;94626.44;;;-0.06
15701;BMP180;7950;42.744;23.174;2023-12-20T01:51:18;94616.91;;;-0.05
15701;BMP180;7950;42.744;23.174;2023-12-20T01:53:48;94613.38;;;-0.04
15701;BMP180;7950;42.744;23.174;2023-12-20T01:56:17;94617.38;;;-0.02
15701;BMP180;7950;42.744;23.174;2023-12-20T01:58:48;94614.63;;;0.00
15701;BMP180;7950;42.744;23.174;2023-12-20T02:01:16;94600.56;;;0.03
15701;BMP180;7950;42.744;23.174;2023-12-20T02:03:46;94600.28;;;-0.03
15701;BMP180;7950;42.744;23.174;2023-12-20T02:06:18;94596.50;;;-0.07
15701;BMP180;7950;42.744;23.174;2023-12-20T02:08:47;94602.25;;;-0.05
15701;BMP180;7950;42.744;23.174;2023-12-20T02:11:15;94594.25;;;-0.10
15701;BMP180;7950;42.744;23.174;2023-12-20T02:13:46;94586.88;;;-0.13
15701;BMP180;7950;42.744;23.174;2023-12-20T02:16:15;94583.00;;;-0.23
15701;BMP180;7950;42.744;23.174;2023-12-20T02:18:44;94594.19;;;-0.16
15701;BMP180;7950;42.744;23.174;2023-12-20T02:21:13;94582.88;;;-0.15
15701;BMP180;7950;42.744;23.174;2023-12-20T02:23:42;94575.97;;;-0.15
15701;BMP180;7950;42.744;23.174;2023-12-20T02:26:11;94566.44;;;-0.14
15701;BMP180;7950;42.744;23.174;2023-12-20T02:28:41;94575.97;;;-0.15
15701;BMP180;7950;42.744;23.174;2023-12-20T02:31:09;94566.34;;;-0.21
15701;BMP180;7950;42.744;23.174;2023-12-20T02:33:38;94557.28;;;-0.17
15701;BMP180;7950;42.744;23.174;2023-12-20T02:36:09;94564.41;;;-0.19
15701;BMP180;7950;42.744;23.174;2023-12-20T02:38:37;94556.31;;;-0.16
15701;BMP180;7950;42.744;23.174;2023-12-20T02:41:07;94560.78;;;-0.24
15701;BMP180;7950;42.744;23.174;2023-12-20T02:43:36;94554.03;;;-0.25
15701;BMP180;7950;42.744;23.174;2023-12-20T02:46:04;94556.19;;;-0.29
15701;BMP180;7950;42.744;23.174;2023-12-20T02:48:33;94554.94;;;-0.33
15701;BMP180;7950;42.744;23.174;2023-12-20T02:51:01;94559.28;;;-0.33
15701;BMP180;7950;42.744;23.174;2023-12-20T02:53:30;94557.78;;;-0.42
15701;BMP180;7950;42.744;23.174;2023-12-20T02:55:58;94552.09;;;-0.38
15701;BMP180;7950;42.744;23.174;2023-12-20T02:58:28;94557.69;;;-0.34
15701;BMP180;7950;42.744;23.174;2023-12-20T03:00:57;94552.97;;;-0.45
15701;BMP180;7950;42.744;23.174;2023-12-20T03:03:26;94560.03;;;-0.54
15701;BMP180;7950;42.744;23.174;2023-12-20T03:05:54;94547.41;;;-0.49
15701;BMP180;7950;42.744;23.174;2023-12-20T03:08:23;94555.81;;;-0.40
15701;BMP180;7950;42.744;23.174;2023-12-20T03:10:54;94552.19;;;-0.46
15701;BMP180;7950;42.744;23.174;2023-12-20T03:13:23;94559.13;;;-0.46
15701;BMP180;7950;42.744;23.174;2023-12-20T03:15:53;94554.41;;;-0.43
15701;BMP180;7950;42.744;23.174;2023-12-20T03:18:22;94544.91;;;-0.57
15701;BMP180;7950;42.744;23.174;2023-12-20T03:20:50;94550.56;;;-0.47
15701;BMP180;7950;42.744;23.174;2023-12-20T03:23:19;94540.28;;;-0.47
15701;BMP180;7950;42.744;23.174;2023-12-20T03:25:48;94534.75;;;-0.44
15701;BMP180;7950;42.744;23.174;2023-12-20T03:28:16;94539.59;;;-0.55
15701;BMP180;7950;42.744;23.174;2023-12-20T03:30:45;94529.03;;;-0.60
15701;BMP180;7950;42.744;23.174;2023-12-20T03:33:15;94531.03;;;-0.56
15701;BMP180;7950;42.744;23.174;2023-12-20T03:35:44;94529.88;;;-0.53
15701;BMP180;7950;42.744;23.174;2023-12-20T03:38:13;94530.44;;;-0.58
15701;BMP180;7950;42.744;23.174;2023-12-20T03:40:41;94526.19;;;-0.51
15701;BMP180;7950;42.744;23.174;2023-12-20T03:43:10;94521.66;;;-0.63
15701;BMP180;7950;42.744;23.174;2023-12-20T03:45:39;94530.78;;;-0.61
15701;BMP180;7950;42.744;23.174;2023-12-20T03:48:07;94521.03;;;-0.65
15701;BMP180;7950;42.744;23.174;2023-12-20T03:50:37;94522.63;;;-0.64
15701;BMP180;7950;42.744;23.174;2023-12-20T03:53:06;94528.69;;;-0.72
15701;BMP180;7950;42.744;23.174;2023-12-20T03:55:35;94522.53;;;-0.71
15701;BMP180;7950;42.744;23.174;2023-12-20T03:58:03;94526.44;;;-0.75
15701;BMP180;7950;42.744;23.174;2023-12-20T04:00:32;94521.81;;;-0.65
15701;BMP180;7950;42.744;23.174;2023-12-20T04:03:00;94509.13;;;-0.66
15701;BMP180;7950;42.744;23.174;2023-12-20T04:05:29;94514.38;;;-0.60
15701;BMP180;7950;42.744;23.174;2023-12-20T04:08:01;94512.91;;;-0.48
15701;BMP180;7950;42.744;23.174;2023-12-20T04:10:30;94507.25;;;-0.58
15701;BMP180;7950;42.744;23.174;2023-12-20T04:12:59;94502.09;;;-0.58
15701;BMP180;7950;42.744;23.174;2023-12-20T04:15:27;94508.75;;;-0.49
15701;BMP180;7950;42.744;23.174;2023-12-20T04:17:56;94506.97;;;-0.48
15701;BMP180;7950;42.744;23.174;2023-12-20T04:20:25;94498.03;;;-0.67
15701;BMP180;7950;42.744;23.174;2023-12-20T04:22:53;94495.97;;;-0.71
15701;BMP180;7950;42.744;23.174;2023-12-20T04:25:23;94487.09;;;-0.69
15701;BMP180;7950;42.744;23.174;2023-12-20T04:27:52;94495.09;;;-0.64
15701;BMP180;7950;42.744;23.174;2023-12-20T04:30:21;94497.28;;;-0.61
15701;BMP180;7950;42.744;23.174;2023-12-20T04:32:49;94491.13;;;-0.66
15701;BMP180;7950;42.744;23.174;2023-12-20T04:35:18;94493.75;;;-0.60
15701;BMP180;7950;42.744;23.174;2023-12-20T04:37:47;94489.41;;;-0.59
15701;BMP180;7950;42.744;23.174;2023-12-20T04:40:16;94495.50;;;-0.46
15701;BMP180;7950;42.744;23.174;2023-12-20T04:42:46;94493.19;;;-0.41
15701;BMP180;7950;42.744;23.174;2023-12-20T04:45:15;94482.00;;;-0.48
15701;BMP180;7950;42.744;23.174;2023-12-20T04:47:44;94476.72;;;-0.40
15701;BMP180;7950;42.744;23.174;2023-12-20T04:50:14;94482.25;;;-0.43
15701;BMP180;7950;42.744;23.174;2023-12-20T04:52:44;94478.31;;;-0.39
15701;BMP180;7950;42.744;23.174;2023-12-20T04:55:12;94481.97;;;-0.33
15701;BMP180;7950;42.744;23.174;2023-12-20T04:57:41;94482.53;;;-0.38
15701;BMP180;7950;42.744;23.174;2023-12-20T05:00:13;94479.97;;;-0.31
15701;BMP180;7950;42.744;23.174;2023-12-20T05:02:42;94466.75;;;-0.28
15701;BMP180;7950;42.744;23.174;2023-12-20T05:05:11;94471.03;;;-0.14
15701;BMP180;7950;42.744;23.174;2023-12-20T05:07:42;94471.84;;;-0.14
15701;BMP180;7950;42.744;23.174;2023-12-20T05:10:11;94470.88;;;-0.13
15701;BMP180;7950;42.744;23.174;2023-12-20T05:12:40;94456.75;;;-0.17
15701;BMP180;7950;42.744;23.174;2023-12-20T05:15:09;94455.75;;;-0.16
15701;BMP180;7950;42.744;23.174;2023-12-20T05:17:39;94468.13;;;-0.11
15701;BMP180;7950;42.744;23.174;2023-12-20T05:20:09;94465.34;;;-0.10
15701;BMP180;7950;42.744;23.174;2023-12-20T05:22:37;94464.59;;;-0.04
15701;BMP180;7950;42.744;23.174;2023-12-20T05:25:07;94457.09;;;0.01
15701;BMP180;7950;42.744;23.174;2023-12-20T05:27:36;94447.03;;;0.06
15701;BMP180;7950;42.744;23.174;2023-12-20T05:30:06;94446.13;;;0.14
15701;BMP180;7950;42.744;23.174;2023-12-20T05:32:34;94441.34;;;0.11
15701;BMP180;7950;42.744;23.174;2023-12-20T05:35:05;94442.63;;;0.00
15701;BMP180;7950;42.744;23.174;2023-12-20T05:37:34;94442.28;;;0.03
15701;BMP180;7950;42.744;23.174;2023-12-20T05:40:04;94436.94;;;0.05
15701;BMP180;7950;42.744;23.174;2023-12-20T05:42:33;94432.00;;;0.10
15701;BMP180;7950;42.744;23.174;2023-12-20T05:45:02;94434.53;;;0.03
15701;BMP180;7950;42.744;23.174;2023-12-20T05:47:30;94441.34;;;0.11
15701;BMP180;7950;42.744;23.174;2023-12-20T05:49:59;94432.19;;;0.08
15701;BMP180;7950;42.744;23.174;2023-12-20T05:52:29;94438.09;;;0.03
15701;BMP180;7950;42.744;23.174;2023-12-20T05:54:58;94440.28;;;-0.16
15701;BMP180;7950;42.744;23.174;2023-12-20T05:57:28;94432.06;;;-0.05
15701;BMP180;7950;42.744;23.174;2023-12-20T05:59:57;94424.88;;;-0.09
15701;BMP180;7950;42.744;23.174;2023-12-20T06:02:25;94433.06;;;-0.06
15701;BMP180;7950;42.744;23.174;2023-12-20T06:04:54;94427.34;;;-0.01
15701;BMP180;7950;42.744;23.174;2023-12-20T06:07:23;94427.53;;;-0.03
15701;BMP180;7950;42.744;23.174;2023-12-20T06:09:53;94423.22;;;0.04
15701;BMP180;7950;42.744;23.174;2023-12-20T06:12:22;94423.28;;;0.11
15701;BMP180;7950;42.744;23.174;2023-12-20T06:14:50;94425.91;;;0.17
15701;BMP180;7950;42.744;23.174;2023-12-20T06:17:19;94419.16;;;0.17
15701;BMP180;7950;42.744;23.174;2023-12-20T06:19:47;94423.16;;;0.19
15701;BMP180;7950;42.744;23.174;2023-12-20T06:22:16;94422.56;;;0.23
15701;BMP180;7950;42.744;23.174;2023-12-20T06:24:45;94426.81;;;0.31
15701;BMP180;7950;42.744;23.174;2023-12-20T06:27:15;94424.56;;;0.22
15701;BMP180;7950;42.744;23.174;2023-12-20T06:29:43;94424.44;;;0.30
15701;BMP180;7950;42.744;23.174;2023-12-20T06:32:12;94423.50;;;0.37
15701;BMP180;7950;42.744;23.174;2023-12-20T06:34:41;94419.31;;;0.36
15701;BMP180;7950;42.744;23.174;2023-12-20T06:37:10;94416.34;;;0.39
15701;BMP180;7950;42.744;23.174;2023-12-20T06:39:38;94425.53;;;0.48
15701;BMP180;7950;42.744;23.174;2023-12-20T06:42:07;94421.59;;;0.52
15701;BMP180;7950;42.744;23.174;2023-12-20T06:44:37;94410.09;;;0.55
15701;BMP180;7950;42.744;23.174;2023-12-20T06:47:06;94407.72;;;0.53
15701;BMP180;7950;42.744;23.174;2023-12-20T06:49:35;94409.16;;;0.62
15701;BMP180;7950;42.744;23.174;2023-12-20T06:52:04;94398.03;;;0.62
15701;BMP180;7950;42.744;23.174;2023-12-20T06:54:33;94407.00;;;0.66
15701;BMP180;7950;42.744;23.174;2023-12-20T06:57:03;94397.31;;;0.74
15701;BMP180;7950;42.744;23.174;2023-12-20T06:59:31;94403.72;;;0.85
15701;BMP180;7950;42.744;23.174;2023-12-20T07:02:02;94400.13;;;0.86
15701;BMP180;7950;42.744;23.174;2023-12-20T07:04:31;94398.41;;;0.93
15701;BMP180;7950;42.744;23.174;2023-12-20T07:06:59;94402.59;;;1.00
15701;BMP180;7950;42.744;23.174;2023-12-20T07:09:28;94397.66;;;1.05
15701;BMP180;7950;42.744;23.174;2023-12-20T07:11:56;94393.31;;;1.12
15701;BMP180;7950;42.744;23.174;2023-12-20T07:14:25;94398.50;;;1.19
15701;BMP180;7950;42.744;23.174;2023-12-20T07:16:55;94396.94;;;1.24
15701;BMP180;7950;42.744;23.174;2023-12-20T07:19:24;94387.59;;;1.30
15701;BMP180;7950;42.744;23.174;2023-12-20T07:21:53;94393.97;;;1.34
15701;BMP180;7950;42.744;23.174;2023-12-20T07:24:22;94376.09;;;1.39
15701;BMP180;7950;42.744;23.174;2023-12-20T07:26:50;94375.94;;;1.47
15701;BMP180;7950;42.744;23.174;2023-12-20T07:29:19;94381.72;;;1.49
15701;BMP180;7950;42.744;23.174;2023-12-20T07:31:47;94383.31;;;1.50
15701;BMP180;7950;42.744;23.174;2023-12-20T07:34:16;94376.16;;;1.58
15701;BMP180;7950;42.744;23.174;2023-12-20T07:36:46;94367.00;;;1.56
15701;BMP180;7950;42.744;23.174;2023-12-20T07:39:15;94369.00;;;1.60
15701;BMP180;7950;42.744;23.174;2023-12-20T07:41:44;94380.94;;;1.61
15701;BMP180;7950;42.744;23.174;2023-12-20T07:44:13;94369.19;;;1.59
15701;BMP180;7950;42.744;23.174;2023-12-20T07:46:43;94368.38;;;1.52
15701;BMP180;7950;42.744;23.174;2023-12-20T07:49:11;94372.94;;;1.37
15701;BMP180;7950;42.744;23.174;2023-12-20T07:51:40;94367.16;;;1.35
15701;BMP180;7950;42.744;23.174;2023-12-20T07:54:10;94376.09;;;1.32
15701;BMP180;7950;42.744;23.174;2023-12-20T07:56:38;94377.06;;;1.25
15701;BMP180;7950;42.744;23.174;2023-12-20T07:59:07;94375.06;;;1.20
15701;BMP180;7950;42.744;23.174;2023-12-20T08:01:48;94374.66;;;1.23
15701;BMP180;7950;42.744;23.174;2023-12-20T08:04:17;94373.69;;;1.18
15701;BMP180;7950;42.744;23.174;2023-12-20T08:06:46;94373.06;;;1.22
15701;BMP180;7950;42.744;23.174;2023-12-20T08:09:16;94376.88;;;1.26
15701;BMP180;7950;42.744;23.174;2023-12-20T08:11:45;94359.78;;;1.25
15701;BMP180;7950;42.744;23.174;2023-12-20T08:14:15;94366.34;;;1.28
15701;BMP180;7950;42.744;23.174;2023-12-20T08:16:44;94351.84;;;1.33
15701;BMP180;7950;42.744;23.174;2023-12-20T08:19:13;94352.25;;;1.37
15701;BMP180;7950;42.744;23.174;2023-12-20T08:21:42;94344.72;;;1.48
15701;BMP180;7950;42.744;23.174;2023-12-20T08:24:10;94351.09;;;1.46
15701;BMP180;7950;42.744;23.174;2023-12-20T08:26:40;94343.34;;;1.59
15701;BMP180;7950;42.744;23.174;2023-12-20T08:29:09;94336.59;;;1.64
15701;BMP180;7950;42.744;23.174;2023-12-20T08:31:37;94335.00;;;1.76
15701;BMP180;7950;42.744;23.174;2023-12-20T08:34:06;94328.84;;;1.77
15701;BMP180;7950;42.744;23.174;2023-12-20T08:36:35;94328.44;;;1.80
15701;BMP180;7950;42.744;23.174;2023-12-20T08:39:04;94335.63;;;1.85
15701;BMP180;7950;42.744;23.174;2023-12-20T08:41:35;94333.22;;;1.77
15701;BMP180;7950;42.744;23.174;2023-12-20T08:44:05;94321.69;;;1.73
15701;BMP180;7950;42.744;23.174;2023-12-20T08:46:34;94327.03;;;1.71
15701;BMP180;7950;42.744;23.174;2023-12-20T08:49:03;94318.09;;;1.61
15701;BMP180;7950;42.744;23.174;2023-12-20T08:51:32;94315.28;;;1.56
15701;BMP180;7950;42.744;23.174;2023-12-20T08:54:01;94308.72;;;1.47
15701;BMP180;7950;42.744;23.174;2023-12-20T08:56:30;94305.13;;;1.41
15701;BMP180;7950;42.744;23.174;2023-12-20T08:58:59;94308.91;;;1.39
15701;BMP180;7950;42.744;23.174;2023-12-20T09:01:29;94304.75;;;1.38
15701;BMP180;7950;42.744;23.174;2023-12-20T09:03:58;94285.84;;;1.50
15701;BMP180;7950;42.744;23.174;2023-12-20T09:06:26;94283.06;;;1.39
15701;BMP180;7950;42.744;23.174;2023-12-20T09:08:55;94282.69;;;1.42
15701;BMP180;7950;42.744;23.174;2023-12-20T09:11:23;94280.72;;;1.44
15701;BMP180;7950;42.744;23.174;2023-12-20T09:13:52;94263.22;;;1.46
15701;BMP180;7950;42.744;23.174;2023-12-20T09:16:21;94266.38;;;1.48
15701;BMP180;7950;42.744;23.174;2023-12-20T09:18:51;94248.50;;;1.53
15701;BMP180;7950;42.744;23.174;2023-12-20T09:21:20;94248.09;;;1.62
15701;BMP180;7950;42.744;23.174;2023-12-20T09:23:49;94236.75;;;1.70
15701;BMP180;7950;42.744;23.174;2023-12-20T09:26:17;94239.34;;;1.70
15701;BMP180;7950;42.744;23.174;2023-12-20T09:28:46;94226.63;;;1.75
15701;BMP180;7950;42.744;23.174;2023-12-20T09:31:15;94212.69;;;1.82
15701;BMP180;7950;42.744;23.174;2023-12-20T09:33:43;94211.88;;;1.88
15701;BMP180;7950;42.744;23.174;2023-12-20T09:36:13;94218.59;;;1.96
15701;BMP180;7950;42.744;23.174;2023-12-20T09:38:42;94216.81;;;2.03
15701;BMP180;7950;42.744;23.174;2023-12-20T09:41:13;94211.25;;;1.99
15701;BMP180;7950;42.744;23.174;2023-12-20T09:43:42;94202.69;;;1.99
15701;BMP180;7950;42.744;23.174;2023-12-20T09:46:14;94210.66;;;1.97
15701;BMP180;7950;42.744;23.174;2023-12-20T09:48:47;94197.72;;;2.04
15701;BMP180;7950;42.744;23.174;2023-12-20T09:51:17;94186.94;;;2.13
15701;BMP180;7950;42.744;23.174;2023-12-20T09:53:47;94185.91;;;2.21
15701;BMP180;7950;42.744;23.174;2023-12-20T09:56:17;94185.09;;;2.27
15701;BMP180;7950;42.744;23.174;2023-12-20T09:58:45;94173.31;;;2.31
15701;BMP180;7950;42.744;23.174;2023-12-20T10:01:16;94164.94;;;2.42
15701;BMP180;7950;42.744;23.174;2023-12-20T10:03:45;94170.44;;;2.52
15701;BMP180;7950;42.744;23.174;2023-12-20T10:06:14;94166.06;;;2.59
15701;BMP180;7950;42.744;23.174;2023-12-20T10:08:44;94161.03;;;2.64
15701;BMP180;7950;42.744;23.174;2023-12-20T10:11:13;94149.44;;;2.73
15701;BMP180;7950;42.744;23.174;2023-12-20T10:13:42;94153.19;;;2.77
15701;BMP180;7950;42.744;23.174;2023-12-20T10:16:11;94151.34;;;2.84
15701;BMP180;7950;42.744;23.174;2023-12-20T10:18:40;94139.00;;;2.86
15701;BMP180;7950;42.744;23.174;2023-12-20T10:21:08;94132.25;;;2.78
15701;BMP180;7950;42.744;23.174;2023-12-20T10:23:39;94130.25;;;2.80
15701;BMP180;7950;42.744;23.174;2023-12-20T10:26:09;94135.47;;;2.74
15701;BMP180;7950;42.744;23.174;2023-12-20T10:28:40;94136.38;;;2.55
15701;BMP180;7950;42.744;23.174;2023-12-20T10:31:09;94131.91;;;2.31
15701;BMP180;7950;42.744;23.174;2023-12-20T10:33:40;94121.78;;;2.29
15701;BMP180;7950;42.744;23.174;2023-12-20T10:36:09;94119.41;;;2.28
15701;BMP180;7950;42.744;23.174;2023-12-20T10:38:43;94120.22;;;2.22
15701;BMP180;7950;42.744;23.174;2023-12-20T10:41:16;94102.91;;;2.22
15701;BMP180;7950;42.744;23.174;2023-12-20T10:43:48;94103.13;;;2.21
15701;BMP180;7950;42.744;23.174;2023-12-20T10:46:18;94092.69;;;2.34
15701;BMP180;7950;42.744;23.174;2023-12-20T10:48:48;94089.88;;;2.42
15701;BMP180;7950;42.744;23.174;2023-12-20T10:51:20;94086.56;;;2.59
15701;BMP180;7950;42.744;23.174;2023-12-20T10:53:50;94082.09;;;2.73
15701;BMP180;7950;42.744;23.174;2023-12-20T10:56:20;94074.69;;;3.01
15701;BMP180;7950;42.744;23.174;2023-12-20T10:58:51;94072.97;;;3.19
15701;BMP180;7950;42.744;23.174;2023-12-20T11:01:19;94069.59;;;3.37
15701;BMP180;7950;42.744;23.174;2023-12-20T11:03:51;94055.94;;;3.48
15701;BMP180;7950;42.744;23.174;2023-12-20T11:06:39;94059.16;;;3.61
15701;BMP180;7950;42.744;23.174;2023-12-20T11:09:19;94051.38;;;3.61
15701;BMP180;7950;42.744;23.174;2023-12-20T11:12:02;94038.00;;;3.64
15701;BMP180;7950;42.744;23.174;2023-12-20T11:14:42;94045.56;;;3.48
15701;BMP180;7950;42.744;23.174;2023-12-20T11:17:14;94040.91;;;3.14
15701;BMP180;7950;42.744;23.174;2023-12-20T11:20:06;94033.28;;;3.19
15701;BMP180;7950;42.744;23.174;2023-12-20T11:22:35;94027.53;;;3.17
15701;BMP180;7950;42.744;23.174;2023-12-20T11:25:10;94026.31;;;3.19
15701;BMP180;7950;42.744;23.174;2023-12-20T11:27:42;94016.00;;;3.13
15701;BMP180;7950;42.744;23.174;2023-12-20T11:30:15;94010.69;;;3.26
15701;BMP180;7950;42.744;23.174;2023-12-20T11:32:46;94017.03;;;3.30
15701;BMP180;7950;42.744;23.174;2023-12-20T11:35:19;94008.19;;;3.37
15701;BMP180;7950;42.744;23.174;2023-12-20T11:37:49;94003.28;;;3.29
15701;BMP180;7950;42.744;23.174;2023-12-20T11:40:18;93993.78;;;3.41
15701;BMP180;7950;42.744;23.174;2023-12-20T11:42:51;93989.00;;;3.56
15701;BMP180;7950;42.744;23.174;2023-12-20T11:45:24;93985.53;;;3.80
15701;BMP180;7950;42.744;23.174;2023-12-20T11:47:57;93989.31;;;3.96
15701;BMP180;7950;42.744;23.174;2023-12-20T11:50:26;93972.81;;;4.20
15701;BMP180;7950;42.744;23.174;2023-12-20T11:52:55;93959.22;;;4.47
15701;BMP180;7950;42.744;23.174;2023-12-20T11:55:24;93955.97;;;4.75
15701;BMP180;7950;42.744;23.174;2023-12-20T11:57:54;93943.75;;;4.98
15701;BMP180;7950;42.744;23.174;2023-12-20T12:00:23;93936.31;;;5.13
15701;BMP180;7950;42.744;23.174;2023-12-20T12:02:57;93938.88;;;5.25
15701;BMP180;7950;42.744;23.174;2023-12-20T12:05:26;93928.00;;;5.39
15701;BMP180;7950;42.744;23.174;2023-12-20T12:07:55;93930.47;;;5.46
15701;BMP180;7950;42.744;23.174;2023-12-20T12:10:24;93925.16;;;5.52
15701;BMP180;7950;42.744;23.174;2023-12-20T12:12:54;93915.47;;;5.64
15701;BMP180;7950;42.744;23.174;2023-12-20T12:15:23;93900.56;;;5.60
15701;BMP180;7950;42.744;23.174;2023-12-20T12:17:55;93906.69;;;5.65
15701;BMP180;7950;42.744;23.174;2023-12-20T12:20:24;93895.47;;;5.65
15701;BMP180;7950;42.744;23.174;2023-12-20T12:23:00;93907.50;;;5.54
15701;BMP180;7950;42.744;23.174;2023-12-20T12:25:30;93892.94;;;5.42
15701;BMP180;7950;42.744;23.174;2023-12-20T12:44:11;93896.09;;;4.93
15701;BMP180;7950;42.744;23.174;2023-12-20T12:46:45;93890.56;;;4.78
15701;BMP180;7950;42.744;23.174;2023-12-20T12:49:14;93886.50;;;4.47
15701;BMP180;7950;42.744;23.174;2023-12-20T12:51:43;93883.19;;;4.17
15701;BMP180;7950;42.744;23.174;2023-12-20T12:54:12;93891.72;;;3.95
15701;BMP180;7950;42.744;23.174;2023-12-20T12:56:43;93883.13;;;3.83
15701;BMP180;7950;42.744;23.174;2023-12-20T12:59:15;93894.97;;;3.79
15701;BMP180;7950;42.744;23.174;2023-12-20T13:01:44;93882.50;;;3.69
15701;BMP180;7950;42.744;23.174;2023-12-20T13:04:13;93889.28;;;3.70
15701;BMP180;7950;42.744;23.174;2023-12-20T13:06:42;93885.31;;;3.68
15701;BMP180;7950;42.744;23.174;2023-12-20T13:09:11;93884.22;;;3.46
15701;BMP180;7950;42.744;23.174;2023-12-20T13:11:39;93883.66;;;3.44
15701;BMP180;7950;42.744;23.174;2023-12-20T13:14:08;93873.38;;;3.37
15701;BMP180;7950;42.744;23.174;2023-12-20T13:16:43;93887.84;;;3.27
15701;BMP180;7950;42.744;23.174;2023-12-20T13:19:12;93877.38;;;3.22
15701;BMP180;7950;42.744;23.174;2023-12-20T13:21:41;93877.16;;;3.23
15701;BMP180;7950;42.744;23.174;2023-12-20T13:24:10;93877.50;;;3.27
15701;BMP180;7950;42.744;23.174;2023-12-20T13:26:38;93880.38;;;3.19
15701;BMP180;7950;42.744;23.174;2023-12-20T13:29:07;93875.53;;;3.22
15701;BMP180;7950;42.744;23.174;2023-12-20T13:31:35;93881.19;;;3.19
15701;BMP180;7950;42.744;23.174;2023-12-20T13:34:06;93866.66;;;3.18
15701;BMP180;7950;42.744;23.174;2023-12-20T13:36:35;93870.44;;;3.16
15701;BMP180;7950;42.744;23.174;2023-12-20T13:39:04;93873.28;;;3.14
15701;BMP180;7950;42.744;23.174;2023-12-20T13:41:34;93866.56;;;3.07
15701;BMP180;7950;42.744;23.174;2023-12-20T13:44:03;93859.53;;;2.96
15701;BMP180;7950;42.744;23.174;2023-12-20T13:46:31;93870.53;;;3.09
15701;BMP180;7950;42.744;23.174;2023-12-20T13:49:00;93857.22;;;2.88
15701;BMP180;7950;42.744;23.174;2023-12-20T13:51:30;93858.88;;;2.82
15701;BMP180;7950;42.744;23.174;2023-12-20T13:53:59;93853.00;;;2.75
15701;BMP180;7950;42.744;23.174;2023-12-20T13:56:28;93861.38;;;2.71
15701;BMP180;7950;42.744;23.174;2023-12-20T13:58:56;93866.44;;;2.66
15701;BMP180;7950;42.744;23.174;2023-12-20T14:01:26;93863.06;;;2.65
15701;BMP180;7950;42.744;23.174;2023-12-20T14:03:55;93859.53;;;2.60
15701;BMP180;7950;42.744;23.174;2023-12-20T14:06:24;93872.63;;;2.65
15701;BMP180;7950;42.744;23.174;2023-12-20T14:08:54;93862.25;;;2.65
15701;BMP180;7950;42.744;23.174;2023-12-20T14:11:23;93858.25;;;2.69
15701;BMP180;7950;42.744;23.174;2023-12-20T14:13:52;93872.69;;;2.76
15701;BMP180;7950;42.744;23.174;2023-12-20T14:16:24;93862.34;;;2.76
15701;BMP180;7950;42.744;23.174;2023-12-20T14:18:53;93862.53;;;2.75
15701;BMP180;7950;42.744;23.174;2023-12-20T14:21:24;93862.53;;;2.75
15701;BMP180;7950;42.744;23.174;2023-12-20T14:23:54;93856.72;;;2.61
15701;BMP180;7950;42.744;23.174;2023-12-20T14:26:23;93859.06;;;2.63
15701;BMP180;7950;42.744;23.174;2023-12-20T14:28:51;93867.03;;;2.68
15701;BMP180;7950;42.744;23.174;2023-12-20T14:31:20;93858.66;;;2.66
15701;BMP180;7950;42.744;23.174;2023-12-20T14:33:51;93863.06;;;2.65
15701;BMP180;7950;42.744;23.174;2023-12-20T14:36:21;93852.31;;;2.62
15701;BMP180;7950;42.744;23.174;2023-12-20T14:38:50;93859.81;;;2.52
15701;BMP180;7950;42.744;23.174;2023-12-20T14:41:20;93855.50;;;2.46
15701;BMP180;7950;42.744;23.174;2023-12-20T14:43:51;93845.34;;;2.44
15701;BMP180;7950;42.744;23.174;2023-12-20T14:46:20;93847.94;;;2.44
15701;BMP180;7950;42.744;23.174;2023-12-20T14:48:49;93852.59;;;2.54